sensor_id;sensor_type;location;lat;lon;timestamp;P1;durP1;ratioP1;P2;durP2;ratioP2
33485;SDS011;19824;52.098;5.004;2023-04-06T05:02:39;26.42;;;15.60;;
33485;SDS011;19824;52.098;5.004;2023-04-06T05:05:22;24.23;;;15.15;;
33485;SDS011;19824;52.098;5.004;2023-04-06T05:07:52;26.25;;;15.65;;
33485;SDS011;19824;52.098;5.004;2023-04-06T05:10:29;25.77;;;15.25;;
33485;SDS011;19824;52.098;5.004;2023-04-06T05:12:59;27.67;;;15.05;;
33485;SDS011;19824;52.098;5.004;2023-04-06T05:15:36;25.60;;;15.48;;
33485;SDS011;19824;52.098;5.004;2023-04-06T05:18:09;25.92;;;15.90;;
33485;SDS011;19824;52.098;5.004;2023-04-06T05:20:47;27.70;;;16.42;;
33485;SDS011;19824;52.098;5.004;2023-04-06T05:23:18;25.92;;;14.95;;
33485;SDS011;19824;52.098;5.004;2023-04-06T05:25:54;24.40;;;15.45;;
33485;SDS011;19824;52.098;5.004;2023-04-06T05:28:24;27.85;;;15.52;;
33485;SDS011;19824;52.098;5.004;2023-04-06T05:31:01;25.77;;;16.10;;
33485;SDS011;19824;52.098;5.004;2023-04-06T05:33:36;27.13;;;15.93;;
33485;SDS011;19824;52.098;5.004;2023-04-06T05:36:13;29.00;;;15.85;;
33485;SDS011;19824;52.098;5.004;2023-04-06T05:38:43;26.13;;;15.68;;
33485;SDS011;19824;52.098;5.004;2023-04-06T05:41:20;24.25;;;15.57;;
33485;SDS011;19824;52.098;5.004;2023-04-06T05:43:51;27.58;;;15.57;;
33485;SDS011;19824;52.098;5.004;2023-04-06T05:46:28;25.85;;;15.45;;
33485;SDS011;19824;52.098;5.004;2023-04-06T05:49:01;27.48;;;16.40;;
33485;SDS011;19824;52.098;5.004;2023-04-06T05:51:38;25.33;;;15.93;;
33485;SDS011;19824;52.098;5.004;2023-04-06T05:54:15;26.65;;;15.52;;
33485;SDS011;19824;52.098;5.004;2023-04-06T05:56:52;34.03;;;16.23;;
33485;SDS011;19824;52.098;5.004;2023-04-06T05:59:22;26.58;;;15.82;;
33485;SDS011;19824;52.098;5.004;2023-04-06T06:02:00;28.08;;;15.75;;
33485;SDS011;19824;52.098;5.004;2023-04-06T06:04:33;25.98;;;15.57;;
33485;SDS011;19824;52.098;5.004;2023-04-06T06:07:10;25.45;;;16.05;;
33485;SDS011;19824;52.098;5.004;2023-04-06T06:09:40;26.08;;;15.60;;
33485;SDS011;19824;52.098;5.004;2023-04-06T06:12:17;26.55;;;16.73;;
33485;SDS011;19824;52.098;5.004;2023-04-06T06:14:47;26.48;;;15.82;;
33485;SDS011;19824;52.098;5.004;2023-04-06T06:17:24;32.55;;;17.23;;
33485;SDS011;19824;52.098;5.004;2023-04-06T06:20:07;28.58;;;16.70;;
33485;SDS011;19824;52.098;5.004;2023-04-06T06:22:38;27.48;;;16.75;;
33485;SDS011;19824;52.098;5.004;2023-04-06T06:25:15;28.67;;;16.88;;
33485;SDS011;19824;52.098;5.004;2023-04-06T06:27:48;25.33;;;16.13;;
33485;SDS011;19824;52.098;5.004;2023-04-06T06:30:24;26.83;;;16.65;;
33485;SDS011;19824;52.098;5.004;2023-04-06T06:32:55;27.63;;;16.17;;
33485;SDS011;19824;52.098;5.004;2023-04-06T06:35:35;27.17;;;16.55;;
33485;SDS011;19824;52.098;5.004;2023-04-06T06:38:11;31.98;;;16.50;;
33485;SDS011;19824;52.098;5.004;2023-04-06T06:40:49;28.77;;;16.23;;
33485;SDS011;19824;52.098;5.004;2023-04-06T06:43:26;26.75;;;17.17;;
33485;SDS011;19824;52.098;5.004;2023-04-06T06:45:56;25.27;;;16.52;;
33485;SDS011;19824;52.098;5.004;2023-04-06T06:48:33;27.80;;;16.90;;
33485;SDS011;19824;52.098;5.004;2023-04-06T06:51:06;27.67;;;17.33;;
33485;SDS011;19824;52.098;5.004;2023-04-06T06:53:44;28.98;;;16.85;;
33485;SDS011;19824;52.098;5.004;2023-04-06T06:56:14;28.17;;;18.10;;
33485;SDS011;19824;52.098;5.004;2023-04-06T06:58:51;30.10;;;17.77;;
33485;SDS011;19824;52.098;5.004;2023-04-06T07:01:21;27.80;;;17.30;;
33485;SDS011;19824;52.098;5.004;2023-04-06T07:03:58;28.45;;;17.92;;
33485;SDS011;19824;52.098;5.004;2023-04-06T07:06:38;29.20;;;18.17;;
33485;SDS011;19824;52.098;5.004;2023-04-06T07:09:08;29.60;;;18.23;;
33485;SDS011;19824;52.098;5.004;2023-04-06T07:11:45;27.25;;;17.23;;
33485;SDS011;19824;52.098;5.004;2023-04-06T07:14:15;28.10;;;16.65;;
33485;SDS011;19824;52.098;5.004;2023-04-06T07:16:52;28.73;;;17.50;;
33485;SDS011;19824;52.098;5.004;2023-04-06T07:19:22;29.15;;;18.05;;
33485;SDS011;19824;52.098;5.004;2023-04-06T07:22:02;31.52;;;17.98;;
33485;SDS011;19824;52.098;5.004;2023-04-06T07:24:32;30.65;;;18.23;;
33485;SDS011;19824;52.098;5.004;2023-04-06T07:27:09;30.63;;;17.65;;
33485;SDS011;19824;52.098;5.004;2023-04-06T07:29:46;27.52;;;17.85;;
33485;SDS011;19824;52.098;5.004;2023-04-06T07:32:16;29.30;;;17.70;;
33485;SDS011;19824;52.098;5.004;2023-04-06T07:34:53;27.65;;;18.63;;
33485;SDS011;19824;52.098;5.004;2023-04-06T07:37:27;32.17;;;18.07;;
33485;SDS011;19824;52.098;5.004;2023-04-06T07:40:03;27.35;;;17.75;;
33485;SDS011;19824;52.098;5.004;2023-04-06T07:42:42;29.20;;;18.48;;
33485;SDS011;19824;52.098;5.004;2023-04-06T07:45:13;31.98;;;19.30;;
33485;SDS011;19824;52.098;5.004;2023-04-06T07:47:50;28.65;;;18.50;;
33485;SDS011;19824;52.098;5.004;2023-04-06T07:50:20;31.30;;;19.30;;
33485;SDS011;19824;52.098;5.004;2023-04-06T07:53:00;35.08;;;19.50;;
33485;SDS011;19824;52.098;5.004;2023-04-06T07:55:30;31.10;;;20.00;;
33485;SDS011;19824;52.098;5.004;2023-04-06T07:58:06;34.03;;;19.98;;
33485;SDS011;19824;52.098;5.004;2023-04-06T08:00:44;32.45;;;19.77;;
33485;SDS011;19824;52.098;5.004;2023-04-06T08:03:14;33.85;;;20.38;;
33485;SDS011;19824;52.098;5.004;2023-04-06T08:05:53;32.45;;;20.35;;
33485;SDS011;19824;52.098;5.004;2023-04-06T08:08:33;31.40;;;20.55;;
33485;SDS011;19824;52.098;5.004;2023-04-06T08:11:03;34.65;;;19.98;;
33485;SDS011;19824;52.098;5.004;2023-04-06T08:13:39;32.78;;;20.77;;
33485;SDS011;19824;52.098;5.004;2023-04-06T08:16:09;32.55;;;19.98;;
33485;SDS011;19824;52.098;5.004;2023-04-06T08:18:46;32.63;;;19.77;;
33485;SDS011;19824;52.098;5.004;2023-04-06T08:21:17;31.23;;;20.00;;
33485;SDS011;19824;52.098;5.004;2023-04-06T08:23:57;37.67;;;21.25;;
33485;SDS011;19824;52.098;5.004;2023-04-06T08:26:27;31.33;;;19.98;;
33485;SDS011;19824;52.098;5.004;2023-04-06T08:29:04;31.05;;;19.70;;
33485;SDS011;19824;52.098;5.004;2023-04-06T08:31:35;34.03;;;20.63;;
33485;SDS011;19824;52.098;5.004;2023-04-06T08:34:13;32.88;;;21.05;;
33485;SDS011;19824;52.098;5.004;2023-04-06T08:36:43;32.55;;;20.70;;
33485;SDS011;19824;52.098;5.004;2023-04-06T08:39:24;34.67;;;20.90;;
33485;SDS011;19824;52.098;5.004;2023-04-06T08:41:54;34.83;;;21.58;;
33485;SDS011;19824;52.098;5.004;2023-04-06T08:44:32;30.65;;;20.42;;
33485;SDS011;19824;52.098;5.004;2023-04-06T08:47:04;33.15;;;21.13;;
33485;SDS011;19824;52.098;5.004;2023-04-06T08:49:41;33.17;;;21.73;;
33485;SDS011;19824;52.098;5.004;2023-04-06T08:52:13;33.78;;;21.20;;
33485;SDS011;19824;52.098;5.004;2023-04-06T08:54:56;30.75;;;21.10;;
33485;SDS011;19824;52.098;5.004;2023-04-06T08:57:32;33.20;;;19.90;;
33485;SDS011;19824;52.098;5.004;2023-04-06T09:00:05;38.30;;;22.30;;
33485;SDS011;19824;52.098;5.004;2023-04-06T09:02:45;31.65;;;20.95;;
33485;SDS011;19824;52.098;5.004;2023-04-06T09:05:25;34.53;;;21.95;;
33485;SDS011;19824;52.098;5.004;2023-04-06T09:08:01;35.70;;;23.30;;
33485;SDS011;19824;52.098;5.004;2023-04-06T09:10:35;35.40;;;22.80;;
33485;SDS011;19824;52.098;5.004;2023-04-06T09:13:11;36.10;;;23.15;;
33485;SDS011;19824;52.098;5.004;2023-04-06T09:15:57;36.80;;;24.00;;
33485;SDS011;19824;52.098;5.004;2023-04-06T09:18:29;39.10;;;24.77;;
33485;SDS011;19824;52.098;5.004;2023-04-06T09:21:07;41.85;;;24.60;;
33485;SDS011;19824;52.098;5.004;2023-04-06T09:23:44;40.72;;;25.23;;
33485;SDS011;19824;52.098;5.004;2023-04-06T09:26:17;42.33;;;26.70;;
33485;SDS011;19824;52.098;5.004;2023-04-06T09:28:55;47.83;;;28.85;;
33485;SDS011;19824;52.098;5.004;2023-04-06T09:31:28;47.72;;;28.60;;
33485;SDS011;19824;52.098;5.004;2023-04-06T09:34:06;48.47;;;28.50;;
33485;SDS011;19824;52.098;5.004;2023-04-06T09:36:36;44.33;;;27.17;;
33485;SDS011;19824;52.098;5.004;2023-04-06T09:39:14;37.65;;;24.55;;
33485;SDS011;19824;52.098;5.004;2023-04-06T09:41:52;40.28;;;25.08;;
33485;SDS011;19824;52.098;5.004;2023-04-06T09:44:29;45.13;;;26.63;;
33485;SDS011;19824;52.098;5.004;2023-04-06T09:47:06;39.72;;;25.38;;
33485;SDS011;19824;52.098;5.004;2023-04-06T09:49:43;41.83;;;25.90;;
33485;SDS011;19824;52.098;5.004;2023-04-06T09:52:21;40.75;;;23.83;;
33485;SDS011;19824;52.098;5.004;2023-04-06T09:54:55;40.95;;;24.33;;
33485;SDS011;19824;52.098;5.004;2023-04-06T09:57:41;40.25;;;23.50;;
33485;SDS011;19824;52.098;5.004;2023-04-06T10:00:27;39.80;;;24.13;;
33485;SDS011;19824;52.098;5.004;2023-04-06T10:06:05;39.72;;;23.35;;
33485;SDS011;19824;52.098;5.004;2023-04-06T10:08:47;36.97;;;20.85;;
33485;SDS011;19824;52.098;5.004;2023-04-06T10:11:21;32.92;;;19.55;;
33485;SDS011;19824;52.098;5.004;2023-04-06T10:14:01;31.52;;;20.15;;
33485;SDS011;19824;52.098;5.004;2023-04-06T10:16:32;27.65;;;19.00;;
33485;SDS011;19824;52.098;5.004;2023-04-06T10:19:11;34.33;;;19.90;;
33485;SDS011;19824;52.098;5.004;2023-04-06T10:21:53;34.03;;;20.00;;
33485;SDS011;19824;52.098;5.004;2023-04-06T10:24:26;29.48;;;19.13;;
33485;SDS011;19824;52.098;5.004;2023-04-06T10:27:03;23.17;;;17.33;;
33485;SDS011;19824;52.098;5.004;2023-04-06T10:29:45;26.13;;;17.40;;
33485;SDS011;19824;52.098;5.004;2023-04-06T10:32:31;25.67;;;16.65;;
33485;SDS011;19824;52.098;5.004;2023-04-06T10:35:06;22.50;;;16.17;;
33485;SDS011;19824;52.098;5.004;2023-04-06T10:37:46;24.08;;;15.35;;
33485;SDS011;19824;52.098;5.004;2023-04-06T10:40:24;20.30;;;13.50;;
33485;SDS011;19824;52.098;5.004;2023-04-06T10:43:07;22.38;;;13.85;;
33485;SDS011;19824;52.098;5.004;2023-04-06T10:45:52;20.40;;;13.57;;
33485;SDS011;19824;52.098;5.004;2023-04-06T10:48:35;18.45;;;12.98;;
33485;SDS011;19824;52.098;5.004;2023-04-06T10:51:14;15.38;;;10.85;;
33485;SDS011;19824;52.098;5.004;2023-04-06T10:53:47;20.08;;;11.80;;
33485;SDS011;19824;52.098;5.004;2023-04-06T10:56:24;18.13;;;12.48;;
33485;SDS011;19824;52.098;5.004;2023-04-06T10:59:02;18.02;;;11.68;;
33485;SDS011;19824;52.098;5.004;2023-04-06T11:01:35;18.23;;;11.50;;
33485;SDS011;19824;52.098;5.004;2023-04-06T11:04:15;18.75;;;11.70;;
33485;SDS011;19824;52.098;5.004;2023-04-06T11:06:52;15.18;;;11.15;;
33485;SDS011;19824;52.098;5.004;2023-04-06T11:09:24;16.73;;;10.75;;
33485;SDS011;19824;52.098;5.004;2023-04-06T11:12:01;14.60;;;10.70;;
33485;SDS011;19824;52.098;5.004;2023-04-06T11:14:32;17.05;;;10.00;;
33485;SDS011;19824;52.098;5.004;2023-04-06T11:17:12;17.45;;;11.27;;
33485;SDS011;19824;52.098;5.004;2023-04-06T11:19:43;13.05;;;9.75;;
33485;SDS011;19824;52.098;5.004;2023-04-06T11:22:20;15.90;;;10.80;;
33485;SDS011;19824;52.098;5.004;2023-04-06T11:24:51;15.75;;;10.65;;
33485;SDS011;19824;52.098;5.004;2023-04-06T11:27:28;14.15;;;9.93;;
33485;SDS011;19824;52.098;5.004;2023-04-06T11:30:06;15.00;;;10.52;;
33485;SDS011;19824;52.098;5.004;2023-04-06T11:32:47;14.02;;;9.80;;
33485;SDS011;19824;52.098;5.004;2023-04-06T11:35:24;14.25;;;10.57;;
33485;SDS011;19824;52.098;5.004;2023-04-06T11:38:04;14.80;;;10.13;;
33485;SDS011;19824;52.098;5.004;2023-04-06T11:40:35;17.20;;;10.55;;
33485;SDS011;19824;52.098;5.004;2023-04-06T11:43:12;15.00;;;10.73;;
33485;SDS011;19824;52.098;5.004;2023-04-06T11:45:43;15.52;;;10.55;;
33485;SDS011;19824;52.098;5.004;2023-04-06T11:48:24;16.75;;;10.43;;
33485;SDS011;19824;52.098;5.004;2023-04-06T11:50:55;18.00;;;10.73;;
33485;SDS011;19824;52.098;5.004;2023-04-06T11:53:42;16.25;;;10.93;;
33485;SDS011;19824;52.098;5.004;2023-04-06T11:56:22;17.60;;;11.95;;
33485;SDS011;19824;52.098;5.004;2023-04-06T11:59:02;14.57;;;10.52;;
33485;SDS011;19824;52.098;5.004;2023-04-06T12:01:33;16.95;;;11.48;;
33485;SDS011;19824;52.098;5.004;2023-04-06T12:04:12;17.55;;;11.18;;
33485;SDS011;19824;52.098;5.004;2023-04-06T12:06:44;15.50;;;11.52;;
33485;SDS011;19824;52.098;5.004;2023-04-06T12:09:20;17.58;;;12.15;;
33485;SDS011;19824;52.098;5.004;2023-04-06T12:11:51;17.90;;;11.77;;
33485;SDS011;19824;52.098;5.004;2023-04-06T12:14:28;18.48;;;12.68;;
33485;SDS011;19824;52.098;5.004;2023-04-06T12:17:05;16.73;;;12.30;;
33485;SDS011;19824;52.098;5.004;2023-04-06T12:19:38;19.40;;;13.00;;
33485;SDS011;19824;52.098;5.004;2023-04-06T12:22:17;19.85;;;12.70;;
33485;SDS011;19824;52.098;5.004;2023-04-06T12:24:48;19.02;;;12.57;;
33485;SDS011;19824;52.098;5.004;2023-04-06T12:27:25;19.48;;;13.40;;
33485;SDS011;19824;52.098;5.004;2023-04-06T12:29:55;20.90;;;13.80;;
33485;SDS011;19824;52.098;5.004;2023-04-06T12:32:32;22.48;;;14.48;;
33485;SDS011;19824;52.098;5.004;2023-04-06T12:35:11;20.20;;;14.05;;
33485;SDS011;19824;52.098;5.004;2023-04-06T12:37:42;21.23;;;14.48;;
33485;SDS011;19824;52.098;5.004;2023-04-06T12:40:19;21.60;;;14.65;;
33485;SDS011;19824;52.098;5.004;2023-04-06T12:42:50;22.88;;;14.20;;
33485;SDS011;19824;52.098;5.004;2023-04-06T12:45:27;22.25;;;14.18;;
33485;SDS011;19824;52.098;5.004;2023-04-06T12:48:06;21.33;;;14.00;;
33485;SDS011;19824;52.098;5.004;2023-04-06T12:50:39;25.48;;;15.63;;
33485;SDS011;19824;52.098;5.004;2023-04-06T12:53:15;22.88;;;15.13;;
33485;SDS011;19824;52.098;5.004;2023-04-06T12:55:46;20.92;;;15.00;;
33485;SDS011;19824;52.098;5.004;2023-04-06T12:58:23;19.58;;;14.38;;
33485;SDS011;19824;52.098;5.004;2023-04-06T13:01:05;20.67;;;14.10;;
